Time;durP1;ratioP1;P1;durP2;ratioP2;P2;SDS_P1;SDS_P2;PMS_P1;PMS_P2;Temp;Humidity;BMP_temperature;BMP_pressure;BME280_temperature;BME280_humidity;BME280_pressure;Samples;Min_cycle;Max_cycle;Signal;HPM_P1;HPM_P2
2021/11/04 00:00:26;;;;;;;15.13;6.73;;;;;;;-142.75;100.00;77373.50;5010925;28;20029;-71
2021/11/04 00:02:51;;;;;;;18.83;5.90;;;;;;;-142.75;100.00;77383.34;5029649;28;20083;-71
2021/11/04 00:05:17;;;;;;;16.70;5.93;;;;;;;-142.75;100.00;77385.31;5029483;28;20029;-72
2021/11/04 00:07:45;;;;;;;25.33;5.57;;;;;;;-142.75;100.00;77377.44;5029565;28;20463;-72
2021/11/04 00:10:11;;;;;;;14.93;5.33;;;;;;;-142.75;100.00;77349.88;5028527;28;20084;-71
2021/11/04 00:12:36;;;;;;;47.72;6.22;;;;;;;-142.75;100.00;77385.31;5029306;28;20045;-72
2021/11/04 00:15:02;;;;;;;20.27;5.97;;;;;;;-142.75;100.00;77381.38;5011653;28;20116;-72
2021/11/04 00:17:28;;;;;;;;;;;;;;;-142.75;100.00;77373.50;5012417;28;20029;-71
2021/11/04 00:19:53;;;;;;;10.47;4.77;;;;;;;-142.75;100.00;77373.50;5026596;28;19963;-72
2021/11/04 00:22:18;;;;;;;18.67;4.80;;;;;;;-142.75;100.00;77369.56;5028989;28;20029;-71
2021/11/04 00:24:44;;;;;;;12.07;4.75;;;;;;;-142.75;100.00;77369.56;5029334;28;20351;-71
2021/11/04 00:29:52;;;;;;;18.00;4.83;;;;;;;-142.75;100.00;77395.16;4987596;28;20459;-67
2021/11/04 00:32:18;;;;;;;18.13;4.60;;;;;;;-142.75;100.00;77397.13;4989227;28;20030;-68
2021/11/04 00:34:43;;;;;;;7.85;4.55;;;;;;;-142.75;100.00;77416.81;4988928;28;20026;-68
2021/11/04 00:37:08;;;;;;;5.45;4.50;;;;;;;-142.75;100.00;77436.50;4989105;28;20039;-68
2021/11/04 00:39:34;;;;;;;12.93;4.55;;;;;;;-142.75;100.00;77440.44;4970861;28;20026;-67
2021/11/04 00:41:59;;;;;;;19.15;4.90;;;;;;;-142.75;100.00;77452.25;4969465;28;20487;-67
2021/11/04 00:44:24;;;;;;;10.75;5.05;;;;;;;-142.75;100.00;77475.91;4970201;28;20026;-68
2021/11/04 00:46:50;;;;;;;11.80;4.75;;;;;;;-142.75;100.00;77468.03;4970420;28;20030;-67
2021/11/04 00:49:15;;;;;;;7.63;4.40;;;;;;;-142.75;100.00;77458.16;4968758;28;20495;-67
2021/11/04 00:51:41;;;;;;;28.40;5.28;;;;;;;-142.75;100.00;77466.03;4969757;28;20045;-67
2021/11/04 00:54:06;;;;;;;13.65;4.97;;;;;;;-142.75;100.00;77470.00;4969991;28;20396;-68
2021/11/04 00:56:32;;;;;;;27.65;5.53;;;;;;;-142.75;100.00;77485.75;4969945;28;20088;-67
2021/11/04 00:58:57;;;;;;;48.70;6.10;;;;;;;-142.75;100.00;77499.53;4969742;28;20031;-67
2021/11/04 01:01:23;;;;;;;20.02;5.78;;;;;;;-142.75;100.00;77485.75;4969230;28;20030;-67
2021/11/04 01:03:49;;;;;;;;;;;;;;;-142.75;100.00;77485.75;4970358;28;20031;-68
2021/11/04 01:06:15;;;;;;;19.57;6.17;;;;;;;-142.75;100.00;77491.66;4969964;28;19913;-67
2021/11/04 01:08:40;;;;;;;25.80;6.00;;;;;;;-142.75;100.00;77483.78;4970160;28;20026;-68
2021/11/04 01:11:07;;;;;;;102.80;6.95;;;;;;;-142.75;100.00;77491.66;4968985;28;20058;-67
2021/11/04 01:13:33;;;;;;;55.50;5.90;;;;;;;-142.75;100.00;77489.69;4969707;28;20041;-68
2021/11/04 01:15:59;;;;;;;31.17;6.33;;;;;;;-142.75;100.00;77491.66;4969727;28;20026;-68
2021/11/04 01:18:24;;;;;;;48.92;6.32;;;;;;;-142.75;100.00;77479.84;4970038;28;20034;-68
2021/11/04 01:20:49;;;;;;;63.00;6.70;;;;;;;-142.75;100.00;77473.94;4969169;28;20050;-67
2021/11/04 01:23:15;;;;;;;27.77;5.35;;;;;;;-142.75;100.00;77475.91;4969629;28;20416;-68
2021/11/04 01:25:40;;;;;;;14.52;5.70;;;;;;;-142.75;100.00;77464.09;4969867;28;20027;-68
2021/11/04 01:28:08;;;;;;;7.28;5.75;;;;;;;-142.75;100.00;77456.22;4969497;28;20035;-68
2021/11/04 01:30:38;;;;;;;13.37;6.70;;;;;;;-142.75;100.00;77440.44;4969582;28;20045;-68
2021/11/04 01:33:03;;;;;;;16.13;5.97;;;;;;;-142.75;100.00;77416.81;4972316;28;20054;-67
2021/11/04 01:35:31;;;;;;;32.30;5.43;;;;;;;-142.75;100.00;77426.66;4973531;28;20061;-68
2021/11/04 01:37:58;;;;;;;36.13;6.10;;;;;;;-142.75;100.00;77458.16;4973457;28;20045;-68
2021/11/04 01:40:24;;;;;;;53.90;6.07;;;;;;;-142.75;100.00;77483.78;4972515;28;20496;-68
2021/11/04 01:42:49;;;;;;;18.15;4.97;;;;;;;-142.75;100.00;77497.56;4973408;28;20106;-67
2021/11/04 01:45:15;;;;;;;25.95;5.40;;;;;;;-142.75;100.00;77491.66;4973247;28;20035;-67
2021/11/04 01:47:42;;;;;;;10.88;5.47;;;;;;;-142.75;100.00;77503.47;4974076;28;20033;-68
2021/11/04 01:50:08;;;;;;;8.37;5.10;;;;;;;-142.75;100.00;77493.63;4972638;28;20029;-67
2021/11/04 01:52:33;;;;;;;6.15;4.47;;;;;;;-142.75;100.00;77493.63;4973088;28;20097;-67
2021/11/04 01:54:58;;;;;;;9.75;4.40;;;;;;;-142.75;100.00;77487.72;4973124;28;20027;-67
2021/11/04 01:57:24;;;;;;;6.55;5.50;;;;;;;-142.75;100.00;77462.13;4972920;28;20031;-67
2021/11/04 01:59:49;;;;;;;5.05;4.30;;;;;;;-142.75;100.00;77473.94;4972252;28;20035;-67
2021/11/04 02:02:19;;;;;;;12.48;5.20;;;;;;;-142.75;100.00;77483.78;4973151;28;20105;-67
2021/11/04 02:04:55;;;;;;;6.70;4.13;;;;;;;-142.75;100.00;77489.69;4973443;28;20031;-67
2021/11/04 02:08:14;;;;;;;5.18;4.28;;;;;;;-142.75;100.00;77495.59;4972921;28;20073;-67
2021/11/04 02:10:48;;;;;;;4.97;4.47;;;;;;;-142.75;100.00;77513.31;4931772;29;20038;-67
2021/11/04 02:13:37;;;;;;;9.10;4.00;;;;;;;-142.75;100.00;77540.88;4932295;29;20036;-67
2021/11/04 02:16:05;;;;;;;10.83;4.40;;;;;;;-142.75;100.00;77533.00;4959590;28;20058;-67
2021/11/04 02:18:32;;;;;;;8.40;4.77;;;;;;;-142.75;100.00;77538.91;4973350;28;20034;-67
2021/11/04 02:21:12;;;;;;;4.83;4.33;;;;;;;-142.75;100.00;77527.09;4971769;28;20026;-67
2021/11/04 02:23:52;;;;;;;6.70;5.27;;;;;;;-142.75;100.00;77534.97;4973021;28;20062;-68
2021/11/04 02:26:20;;;;;;;9.63;4.90;;;;;;;-142.75;100.00;77542.84;4972653;28;20026;-67
2021/11/04 02:28:47;;;;;;;5.70;4.97;;;;;;;-142.75;100.00;77519.22;4972692;28;20428;-67
2021/11/04 02:31:13;;;;;;;11.00;4.60;;;;;;;-142.75;100.00;77527.09;4971398;28;20060;-67
2021/11/04 02:33:39;;;;;;;7.05;5.78;;;;;;;-142.75;100.00;77507.41;4972608;28;20499;-67
2021/11/04 02:36:06;;;;;;;11.90;5.40;;;;;;;-142.75;100.00;77501.50;4972362;28;20030;-67
2021/11/04 02:38:33;;;;;;;10.63;5.73;;;;;;;-142.75;100.00;77491.66;4972343;28;20031;-67
2021/11/04 02:41:00;;;;;;;6.90;5.07;;;;;;;-142.75;100.00;77479.84;4969882;28;20109;-68
2021/11/04 02:43:28;;;;;;;44.10;7.30;;;;;;;-142.75;100.00;77460.13;4972218;28;20031;-68
2021/11/04 02:45:53;;;;;;;46.77;7.57;;;;;;;-142.75;100.00;77446.34;4972223;28;20101;-67
2021/11/04 02:48:19;;;;;;;20.63;7.45;;;;;;;-142.75;100.00;77442.41;4972565;28;20098;-68
2021/11/04 02:50:49;;;;;;;78.45;8.00;;;;;;;-142.75;100.00;77438.47;4971882;28;20499;-67
2021/11/04 02:53:16;;;;;;;169.83;10.33;;;;;;;-142.75;100.00;77462.13;4972101;28;20026;-67
2021/11/04 02:55:42;;;;;;;14.27;6.30;;;;;;;-142.75;100.00;77454.25;4972539;28;20690;-67
2021/11/04 02:58:09;;;;;;;20.75;6.00;;;;;;;-142.75;100.00;77468.03;4971604;28;20038;-67
2021/11/04 03:00:38;;;;;;;15.90;5.43;;;;;;;-142.75;100.00;77479.84;4971448;28;20037;-67
2021/11/04 03:03:03;;;;;;;15.77;5.73;;;;;;;-142.75;100.00;77497.56;4972089;28;20114;-67
2021/11/04 03:05:29;;;;;;;25.33;5.50;;;;;;;-142.75;100.00;77513.31;4971932;28;20504;-67
2021/11/04 03:07:55;;;;;;;19.23;5.53;;;;;;;-142.75;100.00;77523.16;4970443;28;20030;-67
2021/11/04 03:10:21;;;;;;;24.90;6.10;;;;;;;-142.75;100.00;77531.03;4971224;28;20109;-67
2021/11/04 03:12:46;;;;;;;26.08;6.15;;;;;;;-142.75;100.00;77531.03;4972203;28;20046;-67
2021/11/04 03:15:16;;;;;;;17.40;6.65;;;;;;;-142.75;100.00;77546.78;4971600;28;20033;-67
2021/11/04 03:17:42;;;;;;;10.30;6.27;;;;;;;-142.75;100.00;77554.66;4972444;28;20404;-67
2021/11/04 03:20:11;;;;;;;14.30;6.13;;;;;;;-142.75;100.00;77562.53;4971314;28;20114;-67
2021/11/04 03:22:40;;;;;;;19.30;6.90;;;;;;;-142.75;100.00;77558.59;4971670;28;20508;-67
2021/11/04 03:25:07;;;;;;;17.47;6.50;;;;;;;-142.75;100.00;77556.63;4971776;28;20031;-67
2021/11/04 03:27:33;;;;;;;32.07;6.77;;;;;;;-142.75;100.00;77542.84;4971302;28;20062;-67
2021/11/04 03:30:00;;;;;;;;;;;;;;;-142.75;100.00;77531.03;4971381;28;20480;-67
2021/11/04 03:32:26;;;;;;;10.80;6.68;;;;;;;-142.75;100.00;77533.00;4971421;28;19925;-67
2021/11/04 03:34:52;;;;;;;;;;;;;;;-142.75;100.00;77521.19;4971821;28;20034;-68
2021/11/04 03:37:21;;;;;;;9.20;6.27;;;;;;;-142.75;100.00;77497.56;4971168;28;19921;-67
2021/11/04 03:39:48;;;;;;;10.63;6.17;;;;;;;-142.75;100.00;77471.97;4969702;28;20023;-67
2021/11/04 03:42:15;;;;;;;14.30;6.73;;;;;;;-142.75;100.00;77479.84;4971260;28;20022;-67
2021/11/04 03:44:42;;;;;;;9.23;6.43;;;;;;;-142.75;100.00;77473.94;4971562;28;20031;-67
2021/11/04 03:47:08;;;;;;;13.80;6.87;;;;;;;-142.75;100.00;77475.91;4971704;28;20023;-67
2021/11/04 03:49:34;;;;;;;8.82;6.57;;;;;;;-142.75;100.00;77440.44;4969617;28;20118;-67
2021/11/04 03:52:00;;;;;;;10.97;7.83;;;;;;;-142.75;100.00;77430.59;4970316;28;20077;-67
2021/11/04 03:54:26;;;;;;;9.85;7.40;;;;;;;-142.75;100.00;77408.94;4970290;28;20035;-67
2021/11/04 03:56:53;;;;;;;22.33;7.93;;;;;;;-142.75;100.00;77393.19;4969587;28;20041;-67
2021/11/04 03:59:19;;;;;;;11.40;7.00;;;;;;;-142.75;100.00;77379.41;4970848;28;20077;-67
2021/11/04 04:01:45;;;;;;;8.50;6.87;;;;;;;-142.75;100.00;77377.44;4970607;28;20031;-68
2021/11/04 04:04:11;;;;;;;8.25;6.35;;;;;;;-142.75;100.00;77393.19;4970697;28;20035;-67
2021/11/04 04:06:36;;;;;;;8.38;6.20;;;;;;;-142.75;100.00;77387.28;4971035;28;20026;-68
2021/11/04 04:09:03;;;;;;;7.80;6.13;;;;;;;-142.75;100.00;77385.31;4970610;28;20046;-67
2021/11/04 04:11:29;;;;;;;9.80;7.50;;;;;;;-142.75;100.00;77369.56;4970042;28;20058;-67
2021/11/04 04:13:55;;;;;;;10.23;7.75;;;;;;;-142.75;100.00;77363.66;4970616;28;20080;-67
2021/11/04 04:16:21;;;;;;;10.47;7.37;;;;;;;-142.75;100.00;77349.88;4970643;28;20027;-68
2021/11/04 04:18:46;;;;;;;;;;;;;;;-142.75;100.00;77355.78;4971673;28;20081;-68
2021/11/04 04:21:12;;;;;;;10.77;6.30;;;;;;;-142.75;100.00;77353.81;4969600;28;19930;-67
2021/11/04 04:23:37;;;;;;;6.50;5.53;;;;;;;-142.75;100.00;77340.03;4970836;28;20022;-68
2021/11/04 04:26:02;;;;;;;11.27;7.43;;;;;;;-142.75;100.00;77334.13;4970464;28;20278;-67
2021/11/04 04:28:28;;;;;;;13.75;7.95;;;;;;;-142.75;100.00;77334.13;4970249;28;20031;-67
2021/11/04 04:30:53;;;;;;;72.15;10.43;;;;;;;-142.75;100.00;77336.09;4969652;28;20035;-67
2021/11/04 04:33:18;;;;;;;10.25;7.15;;;;;;;-142.75;100.00;77357.75;4970162;28;20029;-68
2021/11/04 04:35:44;;;;;;;72.68;8.95;;;;;;;-142.75;100.00;77379.41;4970719;28;20178;-67
2021/11/04 04:38:09;;;;;;;13.07;6.78;;;;;;;-142.75;100.00;77393.19;4968629;28;20027;-67
2021/11/04 04:40:34;;;;;;;7.73;6.47;;;;;;;-142.75;100.00;77383.34;4969550;28;20520;-67
2021/11/04 04:43:00;;;;;;;9.43;6.47;;;;;;;-142.75;100.00;77373.50;4970301;28;20085;-68
2021/11/04 04:45:25;;;;;;;13.60;8.23;;;;;;;-142.75;100.00;77383.34;4969998;28;20503;-67
2021/11/04 04:47:50;;;;;;;21.83;8.37;;;;;;;-142.75;100.00;77377.44;4970625;28;20045;-67
2021/11/04 04:50:16;;;;;;;11.98;8.30;;;;;;;-142.75;100.00;77365.63;4969313;28;20347;-67
2021/11/04 04:52:41;;;;;;;11.95;7.50;;;;;;;-142.75;100.00;77351.84;4970244;28;20062;-67
2021/11/04 04:55:07;;;;;;;13.90;8.27;;;;;;;-142.75;100.00;77349.88;4970110;28;20432;-67
2021/11/04 04:57:33;;;;;;;;;;;;;;;-142.75;100.00;77347.91;4970193;28;20294;-67
2021/11/04 04:59:59;;;;;;;9.97;7.73;;;;;;;-142.75;100.00;77342.00;4969253;28;19951;-67
2021/11/04 05:02:26;;;;;;;10.07;7.65;;;;;;;-142.75;100.00;77326.25;4968139;28;20030;-68
2021/11/04 05:04:52;;;;;;;11.47;8.03;;;;;;;-142.75;100.00;77343.97;4969513;28;20110;-67
2021/11/04 05:07:18;;;;;;;10.68;7.47;;;;;;;-142.75;100.00;77355.78;4969954;28;20054;-67
2021/11/04 05:09:43;;;;;;;;;;;;;;;-142.75;100.00;77345.94;4969838;28;20036;-68
2021/11/04 05:12:09;;;;;;;9.77;6.87;;;;;;;-142.75;100.00;77326.25;4969800;28;19987;-67
2021/11/04 05:14:35;;;;;;;9.35;7.10;;;;;;;-142.75;100.00;77328.22;4970014;28;20370;-67
2021/11/04 05:17:00;;;;;;;8.18;5.82;;;;;;;-142.75;100.00;77347.91;4969882;28;20037;-67
2021/11/04 05:19:26;;;;;;;8.52;5.78;;;;;;;-142.75;100.00;77373.50;4970099;28;20034;-67
2021/11/04 05:21:51;;;;;;;8.23;6.43;;;;;;;-142.75;100.00;77365.63;4967732;28;21768;-67
2021/11/04 05:24:16;;;;;;;10.15;7.22;;;;;;;-142.75;100.00;77351.84;4969821;28;20037;-67
2021/11/04 05:26:42;;;;;;;11.45;8.95;;;;;;;-142.75;100.00;77324.28;4970000;28;20022;-67
2021/11/04 05:29:08;;;;;;;15.13;8.95;;;;;;;-142.75;100.00;77308.53;4968239;28;20031;-67
2021/11/04 05:31:34;;;;;;;14.27;9.10;;;;;;;-142.75;100.00;77288.84;4972170;28;20018;-67
2021/11/04 05:33:59;;;;;;;14.82;9.38;;;;;;;-142.75;100.00;77282.94;4989089;28;20030;-67
2021/11/04 05:36:25;;;;;;;12.93;9.40;;;;;;;-142.75;100.00;77259.31;4988794;28;20085;-67
2021/11/04 05:38:51;;;;;;;17.70;8.98;;;;;;;-142.75;100.00;77275.06;4988812;28;20026;-66
2021/11/04 05:41:17;;;;;;;15.20;9.20;;;;;;;-142.75;100.00;77273.09;4988285;28;20030;-67
2021/11/04 05:43:42;;;;;;;10.65;7.88;;;;;;;-142.75;100.00;77286.88;4987806;28;20488;-68
2021/11/04 05:46:08;;;;;;;11.90;8.07;;;;;;;-142.75;100.00;77290.81;4988890;28;20220;-67
2021/11/04 05:48:34;;;;;;;16.07;9.17;;;;;;;-142.75;100.00;77288.84;4989452;28;20078;-67
2021/11/04 05:50:59;;;;;;;14.18;8.88;;;;;;;-142.75;100.00;77290.81;4988321;28;20109;-67
2021/11/04 05:53:25;;;;;;;9.32;7.15;;;;;;;-142.75;100.00;77296.72;4989011;28;20388;-67
2021/11/04 05:55:51;;;;;;;10.27;8.07;;;;;;;-142.75;100.00;77288.84;4990309;28;20435;-68
2021/11/04 05:58:17;;;;;;;10.30;8.00;;;;;;;-142.75;100.00;77280.97;4990148;28;20297;-68
2021/11/04 06:00:42;;;;;;;9.63;7.65;;;;;;;-142.75;100.00;77294.75;4988951;28;20023;-68
2021/11/04 06:03:07;;;;;;;9.65;6.78;;;;;;;-142.75;100.00;77306.56;4988795;28;20530;-67
2021/11/04 06:05:33;;;;;;;8.48;6.05;;;;;;;-142.75;100.00;77320.34;4980740;28;20573;-68
2021/11/04 06:07:58;;;;;;;11.93;7.38;;;;;;;-142.75;100.00;77296.72;4969474;28;20031;-67
2021/11/04 06:10:23;;;;;;;10.57;7.03;;;;;;;-142.75;100.00;77282.94;4968760;28;20437;-67
2021/11/04 06:12:49;;;;;;;13.40;6.55;;;;;;;-142.75;100.00;77247.50;4969160;28;20277;-67
2021/11/04 06:15:14;;;;;;;11.07;6.10;;;;;;;-142.75;100.00;77216.00;4969327;28;20555;-67
2021/11/04 06:17:39;;;;;;;8.88;5.55;;;;;;;-142.75;100.00;77219.94;4972307;28;20026;-67
2021/11/04 06:20:06;;;;;;;9.43;5.50;;;;;;;-142.75;100.00;77212.06;4972245;28;20058;-67
2021/11/04 06:22:32;;;;;;;6.60;4.53;;;;;;;-142.75;100.00;77180.56;4971513;28;20027;-67
2021/11/04 06:24:57;;;;;;;5.77;3.67;;;;;;;-142.75;100.00;77176.63;4972947;28;20022;-67
2021/11/04 06:27:22;;;;;;;7.43;4.43;;;;;;;-142.75;100.00;77156.94;4972829;28;20282;-67
2021/11/04 06:29:47;;;;;;;8.35;4.43;;;;;;;-142.75;100.00;77135.28;5009282;22;20321;-71
2021/11/04 06:32:13;;;;;;;7.68;4.28;;;;;;;-142.75;100.00;77131.34;5007516;28;20018;-70
2021/11/04 06:34:38;;;;;;;6.00;4.00;;;;;;;-142.75;100.00;77117.56;4986802;28;20426;-73
2021/11/04 06:37:03;;;;;;;10.97;3.63;;;;;;;-142.75;100.00;77119.53;5001831;28;20297;-71
2021/11/04 06:39:29;;;;;;;5.40;3.22;;;;;;;-142.75;100.00;77139.22;4996603;28;20269;-71
2021/11/04 06:41:54;;;;;;;5.90;3.20;;;;;;;-142.75;100.00;77153.00;4991697;28;20535;-71
2021/11/04 06:44:20;;;;;;;5.20;2.92;;;;;;;-142.75;100.00;77153.00;4992183;28;20034;-71
2021/11/04 06:46:48;;;;;;;5.38;2.40;;;;;;;-142.75;100.00;77133.31;4992435;28;20105;-71
2021/11/04 06:49:16;;;;;;;5.87;2.27;;;;;;;-142.75;100.00;77109.69;4975312;28;20566;-71
2021/11/04 06:51:45;;;;;;;4.70;2.70;;;;;;;-142.75;100.00;77109.69;4990351;28;20442;-71
2021/11/04 06:54:13;;;;;;;6.93;2.40;;;;;;;-142.75;100.00;77109.69;4991768;28;20030;-71
2021/11/04 06:56:41;;;;;;;5.30;1.80;;;;;;;-142.75;100.00;77101.81;4992205;28;20417;-71
2021/11/04 06:59:16;;;;;;;4.53;2.00;;;;;;;-142.75;100.00;77099.84;4991623;28;20025;-72
2021/11/04 07:01:48;;;;;;;3.93;2.13;;;;;;;-142.75;100.00;77107.72;4991776;28;20030;-70
2021/11/04 07:04:22;;;;;;;6.20;2.57;;;;;;;-142.75;100.00;77113.63;4974407;28;20281;-70
2021/11/04 07:06:48;;;;;;;7.47;2.70;;;;;;;-142.75;100.00;77113.63;4992046;28;20226;-71
2021/11/04 07:09:14;;;;;;;6.57;2.33;;;;;;;-142.75;100.00;77125.44;4991646;28;20023;-71
2021/11/04 07:11:40;;;;;;;5.85;2.30;;;;;;;-142.75;100.00;77129.38;4991320;28;20034;-71
2021/11/04 07:14:05;;;;;;;;;;;;;;;-142.75;100.00;77137.25;4991854;28;20029;-71
2021/11/04 07:16:31;;;;;;;5.13;2.83;;;;;;;-142.75;100.00;77145.13;4974356;28;20312;-71
2021/11/04 07:18:58;;;;;;;5.47;3.10;;;;;;;-142.75;100.00;77153.00;4992146;28;20026;-71
2021/11/04 07:21:43;;;;;;;4.73;2.50;;;;;;;-142.75;100.00;77127.41;4973275;28;20034;-70
2021/11/04 07:24:12;;;;;;;4.47;2.50;;;;;;;-142.75;100.00;77123.47;4989516;28;20034;-71
2021/11/04 07:26:40;;;;;;;4.90;2.53;;;;;;;-142.75;100.00;77121.50;4991582;28;20033;-71
2021/11/04 07:29:07;;;;;;;6.17;2.53;;;;;;;-142.75;100.00;77111.66;4991086;28;20110;-71
2021/11/04 07:31:41;;;;;;;4.90;2.23;;;;;;;-142.75;100.00;77101.81;4972991;28;20061;-71
2021/11/04 07:34:09;;;;;;;4.97;2.70;;;;;;;-142.75;100.00;77090.00;4990267;28;20102;-72
2021/11/04 07:36:40;;;;;;;6.40;2.73;;;;;;;-142.75;100.00;77076.22;4991048;28;20526;-70
2021/11/04 07:39:07;;;;;;;4.33;2.70;;;;;;;-142.75;100.00;77062.44;4991090;28;20455;-71
2021/11/04 07:41:34;;;;;;;7.07;2.93;;;;;;;-142.75;100.00;77058.50;4987479;28;20443;-72
2021/11/04 07:44:00;;;;;;;6.33;2.60;;;;;;;-142.75;100.00;77050.63;4969665;28;20093;-71
2021/11/04 07:46:27;;;;;;;5.17;2.57;;;;;;;-142.75;100.00;77050.63;4991548;28;20037;-71
2021/11/04 07:48:53;;;;;;;7.03;3.37;;;;;;;-142.75;100.00;77036.84;4974542;28;20062;-74
2021/11/04 07:51:18;;;;;;;8.68;3.05;;;;;;;-142.75;100.00;77042.75;4990540;28;20061;-70
2021/11/04 07:53:43;;;;;;;9.30;3.13;;;;;;;-142.75;100.00;77042.75;4991257;28;20074;-71
2021/11/04 07:56:09;;;;;;;5.75;3.28;;;;;;;-142.75;100.00;77034.88;4973045;28;20030;-73
2021/11/04 07:58:35;;;;;;;5.88;3.17;;;;;;;-142.75;100.00;77013.22;4990299;28;20388;-71
2021/11/04 08:01:01;;;;;;;;;;;;;;;-142.75;100.00;77013.22;4990320;28;20026;-71
2021/11/04 08:03:26;;;;;;;6.73;3.30;;;;;;;-142.75;100.00;77009.28;4990368;28;20302;-71
2021/11/04 08:05:52;;;;;;;7.90;3.35;;;;;;;-142.75;100.00;76989.59;4990559;28;20026;-71
2021/11/04 08:08:17;;;;;;;5.90;2.83;;;;;;;-142.75;100.00;76995.50;4988746;28;20555;-71
2021/11/04 08:10:42;;;;;;;7.20;3.35;;;;;;;-142.75;100.00;76989.59;4971661;28;20034;-70
2021/11/04 08:13:12;;;;;;;5.97;3.20;;;;;;;-142.75;100.00;76987.63;4989705;28;20519;-71
2021/11/04 08:15:38;;;;;;;8.50;3.40;;;;;;;-142.75;100.00;76964.00;4988115;28;20019;-70
2021/11/04 08:18:04;;;;;;;12.57;3.70;;;;;;;-142.75;100.00;76950.22;4970618;28;20034;-71
2021/11/04 08:20:30;;;;;;;10.32;3.30;;;;;;;-142.75;100.00;76930.53;4988342;28;20076;-71
2021/11/04 08:22:56;;;;;;;10.15;3.28;;;;;;;-142.75;100.00;76873.44;4971812;28;20391;-71
2021/11/04 08:25:21;;;;;;;11.30;2.97;;;;;;;-142.75;100.00;76834.06;4971816;28;20640;-71
2021/11/04 08:27:47;;;;;;;6.00;3.13;;;;;;;-142.75;100.00;76747.47;4971473;28;20030;-71
2021/11/04 08:30:15;;;;;;;5.33;2.70;;;;;;;-142.75;100.00;76686.44;4988040;28;20044;-72
2021/11/04 08:32:42;;;;;;;7.10;2.22;;;;;;;-142.75;100.00;76633.28;4971655;28;20281;-71
2021/11/04 08:35:07;;;;;;;4.72;2.40;;;;;;;-142.75;100.00;76589.97;4988597;28;20019;-71
2021/11/04 08:37:34;;;;;;;4.35;1.80;;;;;;;-142.75;100.00;76556.50;4988883;28;20037;-71
2021/11/04 08:39:59;;;;;;;6.90;1.88;;;;;;;-142.75;100.00;76546.66;4970481;28;20026;-72
2021/11/04 08:42:24;;;;;;;3.97;1.70;;;;;;;-142.75;100.00;76556.50;4988824;28;20045;-71
2021/11/04 08:44:49;;;;;;;3.70;1.67;;;;;;;-142.75;100.00;76582.09;4989156;28;20053;-71
2021/11/04 08:47:15;;;;;;;5.45;1.73;;;;;;;-142.75;100.00;76605.72;4989025;28;20022;-71
2021/11/04 08:49:40;;;;;;;10.70;2.10;;;;;;;-142.75;100.00;76617.53;4971238;28;20025;-69
2021/11/04 08:52:08;;;;;;;4.20;1.75;;;;;;;-142.75;100.00;76641.16;4988570;28;20783;-71
2021/11/04 08:54:34;;;;;;;5.13;1.90;;;;;;;-142.75;100.00;76639.19;4988965;28;20026;-71
2021/11/04 08:56:59;;;;;;;;;;;;;;;-142.75;100.00;76643.13;4988019;28;20034;-70
2021/11/04 08:59:25;;;;;;;8.27;2.20;;;;;;;-142.75;100.00;76649.03;4989307;28;20393;-71
2021/11/04 09:01:50;;;;;;;8.57;1.63;;;;;;;-142.75;100.00;76649.03;4988103;28;20038;-70
2021/11/04 09:04:16;;;;;;;3.38;1.45;;;;;;;-142.75;100.00;76662.81;4988579;28;20081;-70
2021/11/04 09:06:41;;;;;;;5.03;1.75;;;;;;;-142.75;100.00;76658.88;4983447;28;20069;-71
2021/11/04 09:09:07;;;;;;;3.60;1.35;;;;;;;-142.75;100.00;76672.66;4988551;28;20376;-71
2021/11/04 09:11:33;;;;;;;4.93;1.20;;;;;;;-142.75;100.00;76682.50;4987500;28;20030;-70
2021/11/04 09:13:58;;;;;;;3.22;1.48;;;;;;;-142.75;100.00;76686.44;4988228;28;20038;-71
2021/11/04 09:16:25;;;;;;;5.32;1.40;;;;;;;-142.75;100.00;76686.44;4987631;28;20116;-71
2021/11/04 09:18:50;;;;;;;3.50;1.52;;;;;;;-142.75;100.00;76684.47;4988819;28;20022;-71
2021/11/04 09:21:16;;;;;;;4.90;1.23;;;;;;;-142.75;100.00;76702.19;4987866;28;20023;-71
2021/11/04 09:23:41;;;;;;;5.68;1.50;;;;;;;-142.75;100.00;76725.81;4988360;28;20030;-70
2021/11/04 09:26:06;;;;;;;5.70;1.48;;;;;;;-142.75;100.00;76723.84;4983167;28;20015;-71
2021/11/04 09:28:31;;;;;;;2.78;1.08;;;;;;;-142.75;100.00;76735.66;4982651;28;20081;-71
2021/11/04 09:30:57;;;;;;;5.00;1.13;;;;;;;-142.75;100.00;76731.72;4970195;28;20026;-71
2021/11/04 09:33:22;;;;;;;4.07;1.27;;;;;;;-142.75;100.00;76731.72;4970793;28;20403;-70
2021/11/04 09:35:49;;;;;;;3.78;1.42;;;;;;;-142.75;100.00;76723.84;4971137;28;20081;-71
2021/11/04 09:38:15;;;;;;;4.20;1.30;;;;;;;-142.75;100.00;76721.88;4970522;28;20029;-70
2021/11/04 09:40:40;;;;;;;5.70;1.33;;;;;;;-142.75;100.00;76710.06;4987756;28;20030;-71
2021/11/04 09:43:06;;;;;;;7.95;1.05;;;;;;;-142.75;100.00;76708.09;4988316;28;20034;-72
2021/11/04 09:45:31;;;;;;;5.30;1.17;;;;;;;-142.75;100.00;76686.44;4970389;28;20120;-70
2021/11/04 09:47:56;;;;;;;2.42;1.02;;;;;;;-142.75;100.00;76662.81;4988580;28;20022;-71
2021/11/04 09:50:22;;;;;;;3.60;0.77;;;;;;;-142.75;100.00;76613.59;4987377;28;20514;-72
2021/11/04 09:52:54;;;;;;;2.03;0.73;;;;;;;-142.75;100.00;76542.72;4991197;28;20026;-70
2021/11/04 09:55:20;;;;;;;3.58;0.70;;;;;;;-142.75;100.00;76483.69;4972580;28;20022;-71
2021/11/04 09:57:51;;;;;;;5.40;0.70;;;;;;;-142.75;100.00;76467.94;4992075;28;20058;-70
2021/11/04 10:00:17;;;;;;;4.85;0.88;;;;;;;-142.75;100.00;76412.81;4990858;28;20026;-71
2021/11/04 10:02:45;;;;;;;3.03;0.50;;;;;;;-142.75;100.00;76391.16;4991844;28;20027;-70
2021/11/04 10:05:13;;;;;;;3.90;0.60;;;;;;;-142.75;100.00;76410.84;4991993;28;20030;-70
2021/11/04 10:07:42;;;;;;;2.63;0.50;;;;;;;-142.75;100.00;76450.22;4991652;28;20030;-70
2021/11/04 10:10:08;;;;;;;3.97;0.63;;;;;;;-142.75;100.00;76487.63;4971755;28;20507;-71
2021/11/04 10:12:33;;;;;;;;;;;;;;;-142.75;100.00;76517.16;4992294;28;20034;-72
2021/11/04 10:15:13;;;;;;;1.95;0.40;;;;;;;-142.75;100.00;76527.00;4974062;28;19918;-71
2021/11/04 10:17:38;;;;;;;12.80;0.70;;;;;;;-142.75;100.00;76556.50;4991974;28;20031;-71
2021/11/04 10:20:27;;;;;;;1.60;0.50;;;;;;;-142.75;100.00;76554.53;4991483;28;20027;-71
2021/11/04 10:23:00;;;;;;;5.30;0.50;;;;;;;-142.75;100.00;76554.53;4973112;28;20504;-71
2021/11/04 10:25:26;;;;;;;3.28;0.65;;;;;;;-142.75;100.00;76525.03;4973604;28;20108;-69
2021/11/04 10:27:52;;;;;;;3.35;0.40;;;;;;;-142.75;100.00;76467.94;4985827;28;20030;-71
2021/11/04 10:30:41;;;;;;;2.83;0.57;;;;;;;-142.75;100.00;76410.84;4987841;28;20052;-70
2021/11/04 10:33:25;;;;;;;2.55;0.60;;;;;;;-142.75;100.00;76363.59;4989569;28;20026;-70
2021/11/04 10:36:13;;;;;;;5.38;0.70;;;;;;;-142.75;100.00;76306.53;4989428;28;20033;-71
2021/11/04 10:38:40;;;;;;;2.60;0.55;;;;;;;-142.75;100.00;76302.59;4991174;28;20036;-70
2021/11/04 10:41:09;;;;;;;5.30;0.75;;;;;;;-142.75;100.00;76353.78;4989880;28;20484;-71
2021/11/04 10:43:36;;;;;;;7.18;0.70;;;;;;;-142.75;100.00;76353.78;4986204;28;20369;-69
2021/11/04 10:46:04;;;;;;;2.63;0.45;;;;;;;-142.75;100.00;76306.53;4989543;28;20077;-70
2021/11/04 10:48:31;;;;;;;1.52;0.65;;;;;;;-142.75;98.56;76253.38;4973769;28;20137;-70
2021/11/04 10:50:57;;;;;;;2.78;0.60;;;;;;;-142.75;96.25;76200.25;4989665;28;20026;-69
2021/11/04 10:53:25;;;;;;;2.70;0.50;;;;;;;-142.75;94.81;76204.16;4989405;28;20463;-69
2021/11/04 10:55:56;;;;;;;3.20;0.70;;;;;;;-142.75;93.19;76176.63;4989548;28;20057;-70
2021/11/04 10:58:30;;;;;;;2.83;0.43;;;;;;;-142.75;91.69;76125.44;4965538;28;20027;-69
2021/11/04 11:00:56;;;;;;;2.20;0.55;;;;;;;-142.75;88.96;76113.63;4978807;28;20510;-69
2021/11/04 11:03:22;;;;;;;3.80;0.70;;;;;;;-142.75;87.43;76109.69;4988979;28;20026;-69
2021/11/04 11:05:48;;;;;;;;;;;;;;;-142.75;87.76;76015.22;4991665;28;20113;-69
2021/11/04 11:08:14;;;;;;;3.22;0.77;;;;;;;-142.75;84.95;75977.81;4973351;28;20000;-70
2021/11/04 11:10:40;;;;;;;4.78;0.75;;;;;;;-142.75;82.89;76019.16;4973121;28;20050;-69